Time;durP1;ratioP1;P1;durP2;ratioP2;P2;SDS_P1;SDS_P2;PMS_P1;PMS_P2;Temp;Humidity;BMP_temperature;BMP_pressure;BME280_temperature;BME280_humidity;BME280_pressure;Samples;Min_cycle;Max_cycle;Signal;HPM_P1;HPM_P2
2024/01/22 00:02:18;;;;;;;9.80;5.10;;;;;;;;;;5027885;28;20174;-67
2024/01/22 00:04:43;;;;;;;6.43;3.47;;;;;;;;;;5029554;28;20182;-69
2024/01/22 00:07:08;;;;;;;5.93;3.40;;;;;;;;;;5022786;28;20186;-67
2024/01/22 00:09:33;;;;;;;6.60;3.53;;;;;;;;;;5020594;28;20332;-69
2024/01/22 00:11:59;;;;;;;7.83;3.63;;;;;;;;;;5026872;28;20343;-69
2024/01/22 00:14:24;;;;;;;5.47;3.47;;;;;;;;;;5030234;28;20190;-69
2024/01/22 00:16:49;;;;;;;5.17;3.60;;;;;;;;;;5028817;28;20527;-68
2024/01/22 00:19:14;;;;;;;8.10;3.60;;;;;;;;;;5026993;28;20194;-69
2024/01/22 00:21:40;;;;;;;6.10;3.50;;;;;;;;;;5030047;28;20178;-69
2024/01/22 00:24:05;;;;;;;4.80;3.53;;;;;;;;;;5027196;28;20221;-67
2024/01/22 00:26:30;;;;;;;6.10;3.77;;;;;;;;;;5019847;28;20182;-68
2024/01/22 00:28:56;;;;;;;5.00;3.57;;;;;;;;;;5007051;28;20217;-68
2024/01/22 00:31:21;;;;;;;8.77;4.10;;;;;;;;;;5030212;28;20209;-69
2024/01/22 00:33:46;;;;;;;8.63;3.97;;;;;;;;;;5012518;28;20194;-69
2024/01/22 00:36:12;;;;;;;5.70;3.17;;;;;;;;;;5027930;28;20209;-69
2024/01/22 00:38:37;;;;;;;5.90;3.57;;;;;;;;;;5026846;28;20256;-69
2024/01/22 00:41:04;;;;;;;7.43;3.63;;;;;;;;;;5029796;28;20174;-69
2024/01/22 00:43:29;;;;;;;7.30;3.23;;;;;;;;;;5022469;28;20682;-69
2024/01/22 00:45:54;;;;;;;7.83;4.70;;;;;;;;;;5027201;28;20249;-69
2024/01/22 00:48:19;;;;;;;6.80;3.03;;;;;;;;;;5029475;28;20189;-69
2024/01/22 00:50:44;;;;;;;6.67;3.40;;;;;;;;;;5027127;28;20209;-67
2024/01/22 00:53:10;;;;;;;6.17;3.83;;;;;;;;;;5011931;28;20202;-68
2024/01/22 00:55:35;;;;;;;6.50;3.33;;;;;;;;;;5029718;28;20166;-68
2024/01/22 00:58:00;;;;;;;6.63;3.73;;;;;;;;;;5029499;28;20696;-69
2024/01/22 01:00:26;;;;;;;4.47;3.00;;;;;;;;;;5033364;28;20638;-69
2024/01/22 01:02:51;;;;;;;5.97;3.23;;;;;;;;;;5024518;28;20199;-69
2024/01/22 01:05:17;;;;;;;7.80;3.30;;;;;;;;;;5033167;28;20228;-68
2024/01/22 01:07:42;;;;;;;4.97;3.10;;;;;;;;;;5035846;28;20177;-68
2024/01/22 01:10:07;;;;;;;5.43;3.60;;;;;;;;;;5033023;28;20261;-69
2024/01/22 01:12:32;;;;;;;7.00;3.40;;;;;;;;;;5024289;28;20221;-69
2024/01/22 01:14:58;;;;;;;7.43;3.30;;;;;;;;;;5008889;28;20551;-69
2024/01/22 01:17:23;;;;;;;9.50;3.40;;;;;;;;;;5032607;28;20182;-69
2024/01/22 01:19:48;;;;;;;6.00;3.27;;;;;;;;;;5015413;28;20178;-68
2024/01/22 01:22:13;;;;;;;4.90;2.97;;;;;;;;;;5008644;28;20182;-69
2024/01/22 01:24:38;;;;;;;9.30;3.23;;;;;;;;;;5030459;28;20190;-69
2024/01/22 01:27:04;;;;;;;8.73;3.10;;;;;;;;;;5030188;28;20257;-68
2024/01/22 01:29:29;;;;;;;4.20;2.70;;;;;;;;;;5031760;28;20719;-69
2024/01/22 01:31:54;;;;;;;6.67;2.80;;;;;;;;;;5027845;28;20205;-69
2024/01/22 01:34:19;;;;;;;7.07;3.07;;;;;;;;;;5031172;28;20312;-69
2024/01/22 01:36:44;;;;;;;4.27;2.77;;;;;;;;;;5031919;28;20249;-69
2024/01/22 01:39:11;;;;;;;9.23;2.63;;;;;;;;;;5012764;28;20273;-69
2024/01/22 01:41:36;;;;;;;4.40;3.03;;;;;;;;;;5032248;28;20182;-69
2024/01/22 01:44:01;;;;;;;5.07;2.80;;;;;;;;;;5014433;28;20559;-68
2024/01/22 01:46:27;;;;;;;4.17;2.53;;;;;;;;;;5032401;28;20174;-70
2024/01/22 01:48:52;;;;;;;5.00;2.33;;;;;;;;;;5032676;28;20285;-69
2024/01/22 01:51:17;;;;;;;3.37;2.13;;;;;;;;;;5032637;28;20206;-69
2024/01/22 01:53:44;;;;;;;2.60;1.90;;;;;;;;;;5031668;28;20190;-70
2024/01/22 01:56:09;;;;;;;4.93;2.20;;;;;;;;;;5011127;28;20205;-69
2024/01/22 01:58:35;;;;;;;3.90;2.17;;;;;;;;;;5026614;28;20206;-69
2024/01/22 02:01:01;;;;;;;4.27;2.03;;;;;;;;;;5027393;28;20551;-70
2024/01/22 02:03:26;;;;;;;4.47;1.93;;;;;;;;;;5031722;28;20224;-69
2024/01/22 02:05:51;;;;;;;3.90;2.30;;;;;;;;;;5029239;28;20187;-69
2024/01/22 02:08:16;;;;;;;3.53;2.33;;;;;;;;;;5031547;28;20186;-69
2024/01/22 02:10:45;;;;;;;3.13;1.90;;;;;;;;;;5032527;28;20182;-69
2024/01/22 02:13:10;;;;;;;8.93;2.47;;;;;;;;;;5031361;28;20250;-69
2024/01/22 02:15:35;;;;;;;3.70;1.73;;;;;;;;;;5031251;28;20170;-69
2024/01/22 02:18:01;;;;;;;2.20;1.80;;;;;;;;;;5010803;28;20209;-69
2024/01/22 02:20:27;;;;;;;10.00;1.77;;;;;;;;;;5031654;28;20252;-69
2024/01/22 02:22:52;;;;;;;5.67;1.67;;;;;;;;;;5031486;28;20704;-69
2024/01/22 02:25:17;;;;;;;6.28;2.30;;;;;;;;;;5031471;28;20183;-68
2024/01/22 02:27:43;;;;;;;2.93;1.63;;;;;;;;;;5031589;28;20174;-70
2024/01/22 02:30:08;;;;;;;4.00;1.53;;;;;;;;;;5032374;28;20174;-68
2024/01/22 02:32:33;;;;;;;3.23;1.57;;;;;;;;;;5031611;28;20671;-70
2024/01/22 02:34:58;;;;;;;4.13;2.23;;;;;;;;;;5023264;28;20184;-70
2024/01/22 02:37:24;;;;;;;2.77;1.97;;;;;;;;;;5025361;28;20269;-69
2024/01/22 02:39:49;;;;;;;3.57;1.40;;;;;;;;;;5030206;28;20708;-69
2024/01/22 02:42:14;;;;;;;2.70;1.27;;;;;;;;;;5030889;28;20273;-70
2024/01/22 02:44:40;;;;;;;1.33;0.90;;;;;;;;;;5029888;28;20170;-69
2024/01/22 02:47:05;;;;;;;2.10;1.20;;;;;;;;;;5029317;28;20668;-70
2024/01/22 02:49:31;;;;;;;2.22;1.10;;;;;;;;;;5012568;28;20190;-70
2024/01/22 02:51:56;;;;;;;2.47;1.60;;;;;;;;;;5030523;28;20202;-70
2024/01/22 02:54:21;;;;;;;2.63;1.40;;;;;;;;;;5019060;28;20203;-69
2024/01/22 02:56:46;;;;;;;6.95;1.63;;;;;;;;;;5010972;28;20174;-70
2024/01/22 02:59:11;;;;;;;1.70;1.07;;;;;;;;;;5027047;28;20205;-69
2024/01/22 03:01:37;;;;;;;1.53;1.10;;;;;;;;;;5012921;28;20182;-70
2024/01/22 03:04:02;;;;;;;2.05;1.17;;;;;;;;;;5011742;28;20217;-70
2024/01/22 03:06:28;;;;;;;2.30;1.20;;;;;;;;;;5028218;28;20224;-68
2024/01/22 03:08:53;;;;;;;3.53;1.55;;;;;;;;;;5029681;28;20186;-70
2024/01/22 03:11:18;;;;;;;2.13;1.13;;;;;;;;;;5025319;28;20212;-69
2024/01/22 03:13:43;;;;;;;1.75;1.05;;;;;;;;;;5027177;28;20213;-70
2024/01/22 03:16:09;;;;;;;1.10;0.90;;;;;;;;;;5011237;28;20187;-70
2024/01/22 03:18:34;;;;;;;1.95;0.90;;;;;;;;;;5028187;28;20166;-70
2024/01/22 03:21:01;;;;;;;1.77;1.02;;;;;;;;;;5026896;28;20174;-70
2024/01/22 03:23:26;;;;;;;2.20;1.33;;;;;;;;;;5030664;28;20209;-70
2024/01/22 03:25:52;;;;;;;1.02;0.85;;;;;;;;;;5027572;28;20178;-70
2024/01/22 03:28:17;;;;;;;1.20;1.10;;;;;;;;;;5027757;28;20563;-69
2024/01/22 03:30:42;;;;;;;1.50;0.98;;;;;;;;;;5021438;28;20556;-70
2024/01/22 03:33:07;;;;;;;1.10;1.00;;;;;;;;;;5024440;28;20186;-72
2024/01/22 03:35:32;;;;;;;1.15;1.00;;;;;;;;;;5029949;28;20171;-70
2024/01/22 03:37:58;;;;;;;1.35;0.90;;;;;;;;;;5028730;28;20174;-70
2024/01/22 03:40:23;;;;;;;1.25;1.00;;;;;;;;;;5029522;28;20661;-69
2024/01/22 03:42:48;;;;;;;3.72;1.05;;;;;;;;;;5028874;28;20202;-70
2024/01/22 03:45:14;;;;;;;1.25;0.73;;;;;;;;;;5028257;28;20181;-70
2024/01/22 03:47:39;;;;;;;5.13;1.03;;;;;;;;;;5029021;28;20611;-69
2024/01/22 03:50:06;;;;;;;0.93;0.82;;;;;;;;;;5023926;28;20178;-69
2024/01/22 03:52:31;;;;;;;2.53;1.13;;;;;;;;;;5025693;28;20701;-70
2024/01/22 03:54:57;;;;;;;1.85;1.25;;;;;;;;;;5027970;28;20174;-70
2024/01/22 03:57:22;;;;;;;1.48;1.13;;;;;;;;;;5028270;28;20236;-70
2024/01/22 03:59:48;;;;;;;1.15;0.93;;;;;;;;;;5028859;28;20265;-69
2024/01/22 04:02:13;;;;;;;3.55;1.08;;;;;;;;;;5028725;28;20174;-69
2024/01/22 04:04:39;;;;;;;2.28;1.15;;;;;;;;;;5028392;28;21475;-69
2024/01/22 04:07:04;;;;;;;0.93;0.82;;;;;;;;;;5030061;28;20255;-69
2024/01/22 04:09:29;;;;;;;2.53;1.02;;;;;;;;;;5000677;28;20610;-69
2024/01/22 04:11:54;;;;;;;2.13;1.10;;;;;;;;;;5024170;28;20213;-69
2024/01/22 04:14:20;;;;;;;2.42;1.10;;;;;;;;;;5029391;28;20292;-69
2024/01/22 04:16:45;;;;;;;1.60;0.90;;;;;;;;;;5027796;28;20181;-69
2024/01/22 04:19:10;;;;;;;2.15;1.00;;;;;;;;;;5025989;28;20285;-69
2024/01/22 04:21:43;;;;;;;2.33;1.08;;;;;;;;;;5030278;28;20214;-68
2024/01/22 04:24:08;;;;;;;1.02;0.70;;;;;;;;;;5019754;28;20218;-68
2024/01/22 04:26:33;;;;;;;3.47;0.98;;;;;;;;;;5027559;28;20190;-70
2024/01/22 04:28:58;;;;;;;1.30;0.90;;;;;;;;;;5029192;28;20179;-69
2024/01/22 04:31:23;;;;;;;1.95;0.70;;;;;;;;;;5017565;28;20226;-69
2024/01/22 04:33:49;;;;;;;1.15;0.77;;;;;;;;;;5028600;28;20219;-69
2024/01/22 04:36:14;;;;;;;1.15;0.82;;;;;;;;;;5013661;28;20213;-70
2024/01/22 04:38:39;;;;;;;1.27;1.02;;;;;;;;;;5032746;28;20715;-70
2024/01/22 04:41:04;;;;;;;1.05;0.70;;;;;;;;;;5015900;28;20273;-70
2024/01/22 04:43:29;;;;;;;4.05;0.95;;;;;;;;;;5031614;28;20662;-70
2024/01/22 04:45:55;;;;;;;5.05;0.95;;;;;;;;;;5030734;28;20179;-69
2024/01/22 04:48:20;;;;;;;1.48;0.85;;;;;;;;;;5024450;28;20186;-69
2024/01/22 04:50:45;;;;;;;1.30;0.80;;;;;;;;;;5010675;28;20185;-69
2024/01/22 04:53:10;;;;;;;0.55;0.55;;;;;;;;;;5032408;28;20292;-69
2024/01/22 04:55:35;;;;;;;2.08;0.82;;;;;;;;;;5030864;28;20179;-69
2024/01/22 04:58:01;;;;;;;1.38;0.65;;;;;;;;;;5030418;28;20181;-68
2024/01/22 05:00:26;;;;;;;1.25;0.80;;;;;;;;;;5014110;28;20181;-69
2024/01/22 05:02:51;;;;;;;3.58;0.90;;;;;;;;;;5028331;28;20650;-68
2024/01/22 05:05:16;;;;;;;1.63;0.90;;;;;;;;;;5030006;28;20669;-70
2024/01/22 05:07:41;;;;;;;0.85;0.77;;;;;;;;;;5032237;28;20186;-70
2024/01/22 05:10:09;;;;;;;6.05;1.40;;;;;;;;;;5014495;28;20662;-69
2024/01/22 05:12:35;;;;;;;3.63;1.20;;;;;;;;;;5014528;28;20217;-69
2024/01/22 05:15:00;;;;;;;1.65;0.68;;;;;;;;;;5031849;28;20182;-69
2024/01/22 05:17:27;;;;;;;0.82;0.70;;;;;;;;;;5008314;28;20565;-69
2024/01/22 05:19:53;;;;;;;1.67;0.85;;;;;;;;;;5013991;28;20617;-70
2024/01/22 05:22:18;;;;;;;1.02;0.95;;;;;;;;;;5012880;28;20191;-69
2024/01/22 05:24:43;;;;;;;2.10;0.90;;;;;;;;;;5024506;28;20205;-69
2024/01/22 05:27:11;;;;;;;2.00;0.85;;;;;;;;;;5028186;28;20205;-70
2024/01/22 05:29:37;;;;;;;2.42;0.88;;;;;;;;;;5027490;28;20186;-69
2024/01/22 05:32:02;;;;;;;1.55;0.80;;;;;;;;;;5031236;28;20268;-69
2024/01/22 05:34:27;;;;;;;2.22;0.70;;;;;;;;;;5030819;28;20209;-70
2024/01/22 05:36:53;;;;;;;0.90;0.70;;;;;;;;;;5031758;28;20174;-70
2024/01/22 05:39:18;;;;;;;1.83;0.95;;;;;;;;;;5029772;28;20206;-69
2024/01/22 05:41:43;;;;;;;2.35;0.88;;;;;;;;;;5026672;28;20666;-70
2024/01/22 05:44:08;;;;;;;3.67;0.82;;;;;;;;;;5026808;28;20237;-69
2024/01/22 05:46:34;;;;;;;4.80;0.90;;;;;;;;;;5023728;28;20193;-70
2024/01/22 05:48:59;;;;;;;3.28;0.90;;;;;;;;;;5025847;28;20193;-69
2024/01/22 05:51:24;;;;;;;3.33;0.90;;;;;;;;;;5031918;28;20685;-69
2024/01/22 05:53:49;;;;;;;1.05;0.70;;;;;;;;;;5030615;28;20696;-69
2024/01/22 05:56:21;;;;;;;3.78;1.08;;;;;;;;;;5027956;28;20245;-70
2024/01/22 05:58:46;;;;;;;4.97;1.10;;;;;;;;;;5025630;28;20241;-70
2024/01/22 06:01:18;;;;;;;2.78;1.10;;;;;;;;;;5030898;28;20677;-70
2024/01/22 06:03:43;;;;;;;4.75;1.42;;;;;;;;;;5029768;28;20285;-69
2024/01/22 06:06:08;;;;;;;6.82;1.67;;;;;;;;;;5024312;28;20296;-70
2024/01/22 06:08:33;;;;;;;5.03;1.30;;;;;;;;;;5028882;28;20178;-69
2024/01/22 06:10:59;;;;;;;4.93;1.35;;;;;;;;;;5026249;28;20190;-69
2024/01/22 06:13:24;;;;;;;3.08;1.00;;;;;;;;;;5016908;28;20205;-69
2024/01/22 06:15:49;;;;;;;3.35;1.83;;;;;;;;;;5029600;28;20183;-68
2024/01/22 06:18:14;;;;;;;5.55;1.40;;;;;;;;;;5031243;28;20178;-70
2024/01/22 06:20:40;;;;;;;5.50;1.90;;;;;;;;;;5032319;28;20170;-70
2024/01/22 06:23:05;;;;;;;4.22;1.27;;;;;;;;;;5030834;28;20280;-69
2024/01/22 06:25:30;;;;;;;4.85;1.65;;;;;;;;;;5030519;28;20239;-68
2024/01/22 06:27:55;;;;;;;9.35;1.80;;;;;;;;;;5023397;28;20517;-70
2024/01/22 06:30:20;;;;;;;5.72;1.48;;;;;;;;;;5029152;28;20189;-69
2024/01/22 06:32:46;;;;;;;5.07;1.60;;;;;;;;;;5027882;28;20202;-70
2024/01/22 06:35:11;;;;;;;2.38;1.30;;;;;;;;;;5031077;28;20206;-69
2024/01/22 06:37:36;;;;;;;10.00;2.83;;;;;;;;;;5011165;28;20822;-70
2024/01/22 06:40:02;;;;;;;1.58;1.23;;;;;;;;;;5028320;28;20820;-70
2024/01/22 06:42:29;;;;;;;2.92;1.65;;;;;;;;;;5010629;28;22032;-70
2024/01/22 06:44:54;;;;;;;5.32;1.70;;;;;;;;;;5024773;28;20175;-70
2024/01/22 06:47:19;;;;;;;4.95;1.58;;;;;;;;;;5018352;28;20540;-69
2024/01/22 06:49:44;;;;;;;3.67;2.35;;;;;;;;;;5019928;28;20186;-70
2024/01/22 06:52:10;;;;;;;6.43;1.63;;;;;;;;;;5025709;28;20213;-69
2024/01/22 06:54:35;;;;;;;3.67;1.80;;;;;;;;;;5025951;28;20167;-69
2024/01/22 06:57:00;;;;;;;7.75;1.33;;;;;;;;;;5026635;28;20178;-70
2024/01/22 06:59:25;;;;;;;3.05;1.60;;;;;;;;;;5025111;28;20734;-71
2024/01/22 07:01:52;;;;;;;7.85;1.75;;;;;;;;;;5018676;28;20194;-70
2024/01/22 07:04:17;;;;;;;5.93;1.48;;;;;;;;;;5004385;28;20206;-69
2024/01/22 07:06:42;;;;;;;8.50;2.05;;;;;;;;;;5020980;28;20646;-69
2024/01/22 07:09:09;;;;;;;8.27;1.60;;;;;;;;;;5030953;28;20174;-69
2024/01/22 07:11:35;;;;;;;7.78;1.60;;;;;;;;;;5028139;28;20700;-70
2024/01/22 07:14:00;;;;;;;4.03;1.23;;;;;;;;;;5029378;28;20281;-70
2024/01/22 07:16:25;;;;;;;5.47;1.42;;;;;;;;;;5026604;28;20174;-70
2024/01/22 07:18:50;;;;;;;11.38;2.33;;;;;;;;;;5030719;28;20170;-70
2024/01/22 07:21:16;;;;;;;15.80;2.38;;;;;;;;;;5027913;28;20261;-69
2024/01/22 07:23:41;;;;;;;15.18;2.35;;;;;;;;;;5024528;28;20300;-70
2024/01/22 07:26:06;;;;;;;7.95;1.70;;;;;;;;;;5029895;28;20604;-71
2024/01/22 07:28:32;;;;;;;7.68;1.50;;;;;;;;;;5013309;28;20204;-71
2024/01/22 07:30:57;;;;;;;8.82;1.80;;;;;;;;;;5003913;28;20174;-71
2024/01/22 07:33:23;;;;;;;9.95;2.65;;;;;;;;;;5025903;28;20551;-70
2024/01/22 07:35:48;;;;;;;8.93;1.70;;;;;;;;;;5027456;28;20249;-68
2024/01/22 07:38:13;;;;;;;9.30;2.10;;;;;;;;;;5024058;28;20304;-70
2024/01/22 07:40:39;;;;;;;18.50;3.92;;;;;;;;;;5023373;28;20264;-69
2024/01/22 07:43:05;;;;;;;15.60;2.17;;;;;;;;;;5026345;28;20198;-70
2024/01/22 07:45:30;;;;;;;12.18;2.75;;;;;;;;;;5007991;28;20175;-70
2024/01/22 07:47:55;;;;;;;14.20;2.83;;;;;;;;;;5026128;28;20232;-69
2024/01/22 07:50:21;;;;;;;10.35;2.65;;;;;;;;;;5025033;28;20552;-69
2024/01/22 07:52:46;;;;;;;15.40;2.35;;;;;;;;;;5012533;28;20214;-69
2024/01/22 07:55:13;;;;;;;12.57;2.13;;;;;;;;;;5031225;28;20244;-69
2024/01/22 07:57:38;;;;;;;10.48;2.35;;;;;;;;;;5030554;28;20258;-68
2024/01/22 08:00:03;;;;;;;10.00;2.25;;;;;;;;;;5006034;28;20721;-69
2024/01/22 08:02:28;;;;;;;6.60;2.38;;;;;;;;;;5028029;28;20209;-69
2024/01/22 08:04:54;;;;;;;14.50;3.22;;;;;;;;;;5022731;28;20189;-68
2024/01/22 08:07:19;;;;;;;14.60;4.03;;;;;;;;;;5017153;28;20186;-69
2024/01/22 08:09:45;;;;;;;13.05;3.60;;;;;;;;;;5030861;28;20680;-68
2024/01/22 08:12:10;;;;;;;17.35;3.05;;;;;;;;;;5031204;28;20587;-70
2024/01/22 08:14:35;;;;;;;20.83;3.50;;;;;;;;;;5033787;28;20166;-70
2024/01/22 08:17:03;;;;;;;12.27;3.15;;;;;;;;;;5032224;28;20172;-69
2024/01/22 08:19:30;;;;;;;22.17;6.00;;;;;;;;;;5033606;28;20170;-69
2024/01/22 08:21:55;;;;;;;14.23;3.55;;;;;;;;;;5016088;28;20182;-69
2024/01/22 08:24:23;;;;;;;21.10;5.47;;;;;;;;;;5010916;28;20288;-69
2024/01/22 08:26:48;;;;;;;19.73;4.50;;;;;;;;;;5023327;28;20187;-70
2024/01/22 08:29:14;;;;;;;22.67;4.40;;;;;;;;;;5027956;28;20189;-70
2024/01/22 08:31:39;;;;;;;19.73;4.13;;;;;;;;;;5029715;28;20202;-69
2024/01/22 08:34:04;;;;;;;17.15;4.78;;;;;;;;;;5026664;28;20208;-69
2024/01/22 08:36:29;;;;;;;25.60;5.32;;;;;;;;;;5027678;28;20172;-69
2024/01/22 08:38:55;;;;;;;23.85;4.28;;;;;;;;;;5032013;28;20175;-69
2024/01/22 08:41:23;;;;;;;32.28;5.22;;;;;;;;;;5026730;28;20179;-70
2024/01/22 08:43:48;;;;;;;20.30;4.35;;;;;;;;;;5021166;28;20277;-69
2024/01/22 08:46:13;;;;;;;22.80;3.92;;;;;;;;;;5031159;28;20626;-70
2024/01/22 08:48:39;;;;;;;29.80;4.50;;;;;;;;;;5030359;28;20501;-69
2024/01/22 08:51:04;;;;;;;21.13;4.35;;;;;;;;;;5028330;28;20198;-70
2024/01/22 08:53:29;;;;;;;18.08;3.63;;;;;;;;;;5029983;28;20325;-70
2024/01/22 08:55:54;;;;;;;23.30;4.53;;;;;;;;;;5030122;28;20172;-69
2024/01/22 08:58:19;;;;;;;20.85;4.38;;;;;;;;;;5033819;28;20265;-70
2024/01/22 09:00:45;;;;;;;20.20;5.03;;;;;;;;;;5026754;28;20178;-69
2024/01/22 09:03:10;;;;;;;27.90;5.50;;;;;;;;;;5020663;28;20198;-70
2024/01/22 09:05:35;;;;;;;22.43;5.47;;;;;;;;;;5027839;28;20175;-70
2024/01/22 09:08:00;;;;;;;26.92;4.70;;;;;;;;;;5028520;28;20202;-70
2024/01/22 09:10:26;;;;;;;29.87;6.60;;;;;;;;;;5027676;28;20186;-69
2024/01/22 09:12:51;;;;;;;25.60;5.50;;;;;;;;;;5038537;28;20256;-68
2024/01/22 09:15:17;;;;;;;31.73;5.53;;;;;;;;;;5028646;28;20257;-69
2024/01/22 09:17:43;;;;;;;27.33;6.27;;;;;;;;;;5026110;28;20760;-69
2024/01/22 09:20:09;;;;;;;26.90;5.43;;;;;;;;;;5010458;28;20182;-70
2024/01/22 09:22:34;;;;;;;21.77;6.17;;;;;;;;;;5020937;28;20218;-69
2024/01/22 09:24:59;;;;;;;29.30;4.63;;;;;;;;;;5012383;28;20656;-70
2024/01/22 09:27:25;;;;;;;18.43;5.63;;;;;;;;;;5012840;28;20213;-70
2024/01/22 09:29:50;;;;;;;25.63;5.03;;;;;;;;;;5033296;28;20533;-70
2024/01/22 09:32:15;;;;;;;27.87;5.10;;;;;;;;;;5031778;28;20198;-70
2024/01/22 09:34:40;;;;;;;26.40;5.60;;;;;;;;;;5009531;28;20178;-70
2024/01/22 09:37:06;;;;;;;25.90;5.70;;;;;;;;;;5015475;28;20201;-70
2024/01/22 09:39:32;;;;;;;21.07;5.40;;;;;;;;;;5032646;28;20173;-70
2024/01/22 09:41:57;;;;;;;23.97;4.60;;;;;;;;;;5027074;28;20666;-69
2024/01/22 09:44:23;;;;;;;23.20;6.33;;;;;;;;;;5026992;28;20706;-70
2024/01/22 09:46:49;;;;;;;20.50;4.57;;;;;;;;;;5030139;28;20186;-69
2024/01/22 09:49:14;;;;;;;20.97;3.93;;;;;;;;;;5029720;28;20189;-69
2024/01/22 09:51:41;;;;;;;19.83;3.83;;;;;;;;;;5032967;28;20234;-69
2024/01/22 09:54:08;;;;;;;16.37;3.83;;;;;;;;;;5031821;28;20725;-70
2024/01/22 09:56:34;;;;;;;25.07;4.77;;;;;;;;;;5032618;28;20253;-70
2024/01/22 09:59:04;;;;;;;24.90;3.70;;;;;;;;;;5014243;28;20186;-70
2024/01/22 10:01:30;;;;;;;16.73;4.00;;;;;;;;;;5019536;28;20223;-70
2024/01/22 10:03:57;;;;;;;30.40;4.73;;;;;;;;;;5026822;28;20244;-70
2024/01/22 10:06:22;;;;;;;17.10;4.63;;;;;;;;;;5027189;28;20188;-70
2024/01/22 10:08:56;;;;;;;41.03;4.57;;;;;;;;;;5009615;28;20179;-70
2024/01/22 10:11:21;;;;;;;21.63;4.57;;;;;;;;;;5032225;28;20209;-69
2024/01/22 10:13:50;;;;;;;16.87;4.67;;;;;;;;;;5032059;28;20194;-70
2024/01/22 10:16:15;;;;;;;19.37;4.30;;;;;;;;;;5031430;28;20167;-70
2024/01/22 10:18:54;;;;;;;22.30;3.93;;;;;;;;;;5032529;28;20178;-70
2024/01/22 10:21:19;;;;;;;14.00;3.33;;;;;;;;;;5027316;28;20178;-69
2024/01/22 10:23:54;;;;;;;19.10;4.07;;;;;;;;;;5026570;28;20229;-68
2024/01/22 10:26:21;;;;;;;15.73;3.00;;;;;;;;;;5027700;28;20194;-69
2024/01/22 10:28:46;;;;;;;11.03;3.00;;;;;;;;;;5030037;28;20177;-70
2024/01/22 10:31:12;;;;;;;23.80;5.87;;;;;;;;;;5012185;28;20202;-69
2024/01/22 10:33:38;;;;;;;13.37;3.60;;;;;;;;;;5032197;28;20601;-68
2024/01/22 10:36:14;;;;;;;17.63;3.53;;;;;;;;;;5026805;28;20166;-70
2024/01/22 10:38:40;;;;;;;11.27;2.73;;;;;;;;;;5011413;28;20285;-70
2024/01/22 10:41:15;;;;;;;17.73;2.80;;;;;;;;;;5020379;28;20183;-70
2024/01/22 10:43:40;;;;;;;20.90;4.00;;;;;;;;;;5028157;28;20205;-70
2024/01/22 10:46:06;;;;;;;19.50;3.40;;;;;;;;;;5024643;28;20634;-70
2024/01/22 10:48:31;;;;;;;11.95;3.28;;;;;;;;;;5018937;28;20174;-69
2024/01/22 10:50:57;;;;;;;19.58;3.58;;;;;;;;;;5010204;28;20698;-69
2024/01/22 10:53:23;;;;;;;22.23;4.32;;;;;;;;;;5025751;28;20216;-70
2024/01/22 10:56:02;;;;;;;12.30;4.25;;;;;;;;;;5010617;28;20666;-69
2024/01/22 10:58:32;;;;;;;24.08;4.55;;;;;;;;;;5021627;28;20550;-70
2024/01/22 11:01:00;;;;;;;18.15;2.97;;;;;;;;;;5027462;28;20187;-70
2024/01/22 11:03:26;;;;;;;15.77;3.28;;;;;;;;;;5025857;28;20588;-70
2024/01/22 11:05:54;;;;;;;14.50;3.15;;;;;;;;;;5027091;28;20228;-69
2024/01/22 11:08:19;;;;;;;21.70;3.30;;;;;;;;;;5025012;28;20175;-70
2024/01/22 11:10:45;;;;;;;13.60;2.88;;;;;;;;;;5023114;28;20181;-69
2024/01/22 11:13:12;;;;;;;16.55;2.42;;;;;;;;;;5030076;28;20205;-69
2024/01/22 11:15:37;;;;;;;19.08;4.03;;;;;;;;;;5024699;28;20175;-70
2024/01/22 11:18:04;;;;;;;17.92;3.40;;;;;;;;;;5030124;28;20680;-70
2024/01/22 11:20:29;;;;;;;15.02;4.00;;;;;;;;;;5023689;28;20685;-70
2024/01/22 11:22:58;;;;;;;15.00;3.55;;;;;;;;;;5006134;28;20207;-69
2024/01/22 11:25:23;;;;;;;17.48;3.58;;;;;;;;;;5027170;28;20177;-70
2024/01/22 11:27:49;;;;;;;13.45;3.40;;;;;;;;;;5030139;28;20724;-70
2024/01/22 11:30:20;;;;;;;23.20;4.53;;;;;;;;;;5024667;28;20182;-70
2024/01/22 11:32:45;;;;;;;25.13;4.85;;;;;;;;;;5029492;28;20221;-69
2024/01/22 11:35:11;;;;;;;18.90;3.22;;;;;;;;;;5027892;28;20209;-70
2024/01/22 11:37:36;;;;;;;11.02;3.00;;;;;;;;;;5029485;28;20166;-70
2024/01/22 11:40:02;;;;;;;20.65;3.80;;;;;;;;;;5028809;28;20209;-69
2024/01/22 11:42:31;;;;;;;13.90;3.55;;;;;;;;;;5029314;28;20170;-70
2024/01/22 11:44:58;;;;;;;10.60;3.38;;;;;;;;;;5027684;28;20170;-70
2024/01/22 11:47:24;;;;;;;12.18;2.83;;;;;;;;;;5030482;28;20170;-70
2024/01/22 11:49:51;;;;;;;14.30;3.20;;;;;;;;;;5012028;28;20204;-70
2024/01/22 11:52:18;;;;;;;19.27;2.92;;;;;;;;;;5009516;28;20236;-69
2024/01/22 11:54:55;;;;;;;15.00;3.42;;;;;;;;;;5024943;28;20513;-70
2024/01/22 11:57:21;;;;;;;18.27;4.32;;;;;;;;;;5029336;28;20178;-70
2024/01/22 11:59:59;;;;;;;13.90;3.58;;;;;;;;;;5029498;28;20185;-69
2024/01/22 12:02:24;;;;;;;10.57;3.17;;;;;;;;;;5029973;28;20642;-70
2024/01/22 12:05:11;;;;;;;19.77;2.83;;;;;;;;;;5025909;28;20430;-70
2024/01/22 12:07:38;;;;;;;17.05;3.35;;;;;;;;;;5027067;28;20170;-69
2024/01/22 12:10:06;;;;;;;16.17;3.85;;;;;;;;;;5010848;28;20213;-69
2024/01/22 12:12:32;;;;;;;16.70;3.22;;;;;;;;;;5010351;28;20205;-70
2024/01/22 12:14:57;;;;;;;12.02;2.50;;;;;;;;;;5028165;28;20587;-71
2024/01/22 12:17:23;;;;;;;14.43;4.30;;;;;;;;;;5027361;28;20178;-70
2024/01/22 12:19:53;;;;;;;14.00;2.90;;;;;;;;;;5006074;28;20182;-70
2024/01/22 12:22:19;;;;;;;15.27;3.38;;;;;;;;;;5011037;28;20181;-70
2024/01/22 12:25:00;;;;;;;14.02;2.67;;;;;;;;;;5016769;28;20606;-70
2024/01/22 12:27:25;;;;;;;15.02;3.13;;;;;;;;;;5028017;28;20174;-70
2024/01/22 12:29:57;;;;;;;13.10;2.67;;;;;;;;;;5028616;28;20189;-70
2024/01/22 12:32:23;;;;;;;10.95;3.15;;;;;;;;;;5026605;28;20229;-70
2024/01/22 12:34:54;;;;;;;17.35;3.95;;;;;;;;;;5023727;28;20174;-70
2024/01/22 12:37:23;;;;;;;15.63;3.40;;;;;;;;;;5026366;28;20720;-70
2024/01/22 12:39:48;;;;;;;17.95;2.83;;;;;;;;;;5021110;28;20198;-71
2024/01/22 12:42:18;;;;;;;10.88;3.58;;;;;;;;;;5025700;28;20269;-70
2024/01/22 12:44:54;;;;;;;20.15;3.25;;;;;;;;;;5016398;28;20599;-70
2024/01/22 12:47:19;;;;;;;18.95;3.75;;;;;;;;;;5004185;28;20730;-70
2024/01/22 12:49:44;;;;;;;10.93;2.63;;;;;;;;;;5006741;28;20267;-69
2024/01/22 12:52:10;;;;;;;11.35;2.65;;;;;;;;;;5030225;28;20209;-70
2024/01/22 12:54:35;;;;;;;11.43;3.08;;;;;;;;;;5028727;28;20174;-68
2024/01/22 12:57:00;;;;;;;10.95;2.80;;;;;;;;;;5025790;28;20494;-70
2024/01/22 12:59:26;;;;;;;21.05;3.72;;;;;;;;;;5030435;28;20178;-70
2024/01/22 13:01:51;;;;;;;14.70;2.97;;;;;;;;;;5012597;28;20225;-70
2024/01/22 13:04:16;;;;;;;16.20;3.45;;;;;;;;;;5022774;28;20229;-70
2024/01/22 13:06:42;;;;;;;21.02;4.35;;;;;;;;;;5028217;28;20256;-70
2024/01/22 13:09:07;;;;;;;21.20;4.40;;;;;;;;;;5030277;28;20615;-70
2024/01/22 13:11:32;;;;;;;14.05;4.00;;;;;;;;;;5031354;28;20201;-70
2024/01/22 13:13:57;;;;;;;17.05;3.22;;;;;;;;;;5031057;28;20194;-71
2024/01/22 13:16:22;;;;;;;17.85;4.45;;;;;;;;;;5031818;28;20697;-69
2024/01/22 13:18:48;;;;;;;18.80;3.85;;;;;;;;;;5013953;28;20177;-70
2024/01/22 13:21:15;;;;;;;10.25;3.58;;;;;;;;;;5032145;28;20201;-69
2024/01/22 13:23:40;;;;;;;17.42;4.38;;;;;;;;;;5020738;28;20205;-70
2024/01/22 13:26:08;;;;;;;14.32;3.38;;;;;;;;;;5008674;28;20269;-70
2024/01/22 13:28:35;;;;;;;10.57;3.50;;;;;;;;;;5031808;28;20184;-70
2024/01/22 13:31:01;;;;;;;11.35;3.15;;;;;;;;;;5033171;28;20209;-69
2024/01/22 13:33:26;;;;;;;18.38;3.50;;;;;;;;;;5030365;28;20219;-70
2024/01/22 13:35:51;;;;;;;12.40;2.65;;;;;;;;;;5031718;28;20669;-69
2024/01/22 13:38:16;;;;;;;12.23;3.25;;;;;;;;;;5028033;28;20733;-70
2024/01/22 13:40:41;;;;;;;15.75;4.00;;;;;;;;;;5032086;28;20170;-70
2024/01/22 13:43:06;;;;;;;12.73;3.28;;;;;;;;;;5020852;28;20205;-70
2024/01/22 13:45:32;;;;;;;17.80;2.65;;;;;;;;;;5026911;28;20245;-70
2024/01/22 13:47:57;;;;;;;13.52;4.70;;;;;;;;;;5012686;28;20182;-70
2024/01/22 13:50:22;;;;;;;19.73;3.78;;;;;;;;;;5012447;28;20179;-71
2024/01/22 13:52:47;;;;;;;18.40;3.42;;;;;;;;;;5031554;28;20333;-70
2024/01/22 13:55:12;;;;;;;18.88;3.60;;;;;;;;;;5011774;28;20261;-69
2024/01/22 13:57:38;;;;;;;18.75;5.07;;;;;;;;;;5031747;28;20181;-70
2024/01/22 14:00:03;;;;;;;10.38;2.95;;;;;;;;;;5028551;28;20556;-70
2024/01/22 14:02:29;;;;;;;19.60;2.92;;;;;;;;;;5023293;28;20191;-70
2024/01/22 14:04:54;;;;;;;20.13;3.28;;;;;;;;;;5026545;28;20177;-70
2024/01/22 14:07:19;;;;;;;17.10;3.13;;;;;;;;;;5027162;28;20690;-71
2024/01/22 14:09:44;;;;;;;13.38;3.58;;;;;;;;;;5031414;28;20182;-70
2024/01/22 14:12:09;;;;;;;24.63;4.25;;;;;;;;;;5028623;28;20194;-71
2024/01/22 14:14:35;;;;;;;15.60;3.72;;;;;;;;;;5029181;28;20192;-70
2024/01/22 14:17:00;;;;;;;19.98;2.97;;;;;;;;;;5011135;28;20175;-68
2024/01/22 14:19:25;;;;;;;14.00;3.40;;;;;;;;;;5026801;28;20574;-70
2024/01/22 14:21:50;;;;;;;20.55;3.53;;;;;;;;;;5002600;28;20191;-70
2024/01/22 14:24:15;;;;;;;12.90;2.83;;;;;;;;;;5043991;22;20320;-70
2024/01/22 14:26:41;;;;;;;14.48;3.78;;;;;;;;;;5030198;28;20182;-71
2024/01/22 14:29:06;;;;;;;25.73;4.78;;;;;;;;;;5030165;28;20261;-71